createdAt,value
2023-05-04T00:00:03.575Z,11.88
2023-05-04T00:01:03.301Z,11.70
2023-05-04T00:02:03.357Z,11.78
2023-05-04T00:03:03.444Z,11.84
2023-05-04T00:04:03.511Z,11.87
2023-05-04T00:05:03.391Z,11.88
2023-05-04T00:06:03.362Z,11.89
2023-05-04T00:07:03.377Z,11.89
2023-05-04T00:08:03.404Z,11.88
2023-05-04T00:09:03.381Z,11.89
2023-05-04T00:10:03.742Z,11.89
2023-05-04T00:11:03.411Z,11.91
2023-05-04T00:12:03.440Z,11.88
2023-05-04T00:13:03.538Z,11.89
2023-05-04T00:14:03.491Z,11.92
2023-05-04T00:15:03.474Z,11.87
2023-05-04T00:16:03.554Z,11.92
2023-05-04T00:17:03.505Z,11.92
2023-05-04T00:18:03.586Z,11.89
2023-05-04T00:19:03.620Z,11.92
2023-05-04T00:20:03.877Z,11.94
2023-05-04T00:21:03.824Z,11.96
2023-05-04T00:22:03.847Z,11.95
2023-05-04T00:23:03.928Z,11.94
2023-05-04T00:24:04.014Z,11.92
2023-05-04T00:25:04.083Z,11.94
2023-05-04T00:26:04.242Z,11.80
2023-05-04T00:27:04.261Z,11.84
2023-05-04T00:28:04.314Z,11.82
2023-05-04T00:29:04.395Z,11.84
2023-05-04T00:30:04.721Z,11.82
2023-05-04T00:31:04.543Z,11.82
2023-05-04T00:32:04.769Z,11.76
2023-05-04T00:33:04.749Z,11.73
2023-05-04T00:34:04.777Z,11.74
2023-05-04T00:35:04.875Z,11.77
2023-05-04T00:36:04.933Z,11.81
2023-05-04T00:37:05.021Z,11.80
2023-05-04T00:38:05.065Z,11.80
2023-05-04T00:39:05.102Z,11.78
2023-05-04T00:40:05.419Z,11.78
2023-05-04T00:41:05.125Z,11.78
2023-05-04T00:42:05.157Z,11.78
2023-05-04T00:43:05.175Z,11.77
2023-05-04T00:44:05.196Z,11.77
2023-05-04T00:45:05.205Z,11.74
2023-05-04T00:46:05.457Z,11.76
2023-05-04T00:47:05.336Z,11.71
2023-05-04T00:48:05.377Z,11.74
2023-05-04T00:49:05.350Z,11.67
2023-05-04T00:50:05.619Z,11.68
2023-05-04T00:51:05.440Z,11.66
2023-05-04T00:52:05.491Z,11.66
2023-05-04T00:53:05.481Z,11.66
2023-05-04T00:54:05.520Z,11.66
2023-05-04T00:55:05.551Z,11.60
2023-05-04T00:56:05.590Z,11.61
2023-05-04T00:57:05.671Z,11.57
2023-05-04T00:58:05.657Z,11.60
2023-05-04T00:59:05.723Z,11.61
2023-05-04T01:00:06.056Z,11.60
2023-05-04T01:01:05.814Z,11.61
2023-05-04T01:02:05.886Z,11.60
2023-05-04T01:03:05.887Z,11.57
2023-05-04T01:04:06.043Z,11.50
2023-05-04T01:05:05.921Z,11.51
2023-05-04T01:06:05.965Z,11.44
2023-05-04T01:07:06.013Z,11.47
2023-05-04T01:08:06.034Z,11.49
2023-05-04T01:09:06.067Z,11.47
2023-05-04T01:10:06.346Z,11.49
2023-05-04T01:11:06.172Z,11.51
2023-05-04T01:12:06.185Z,11.47
2023-05-04T01:13:06.245Z,11.50
2023-05-04T01:14:06.207Z,11.49
2023-05-04T01:15:06.244Z,11.49
2023-05-04T01:16:06.282Z,11.50
2023-05-04T01:17:06.457Z,11.41
2023-05-04T01:18:06.446Z,11.44
2023-05-04T01:19:06.394Z,11.47
2023-05-04T01:20:06.741Z,11.49
2023-05-04T01:21:06.441Z,11.50
2023-05-04T01:22:06.481Z,11.46
2023-05-04T01:23:06.510Z,11.47
2023-05-04T01:24:06.556Z,11.47
2023-05-04T01:25:06.613Z,11.46
2023-05-04T01:26:06.620Z,11.47
2023-05-04T01:27:06.722Z,11.44
2023-05-04T01:28:06.684Z,11.46
2023-05-04T01:29:06.720Z,11.43
2023-05-04T01:30:06.985Z,11.43
2023-05-04T01:31:06.863Z,11.40
2023-05-04T01:32:06.816Z,11.43
2023-05-04T01:33:06.923Z,11.40
2023-05-04T01:34:06.987Z,11.41
2023-05-04T01:35:06.908Z,11.40
2023-05-04T01:36:06.952Z,11.40
2023-05-04T01:37:06.998Z,11.40
2023-05-04T01:38:07.080Z,11.39
2023-05-04T01:39:07.067Z,11.37
2023-05-04T01:40:07.171Z,11.39
2023-05-04T01:41:07.185Z,11.39
2023-05-04T01:42:07.239Z,11.32
2023-05-04T01:43:07.461Z,11.26
2023-05-04T01:44:07.338Z,11.25
2023-05-04T01:45:07.379Z,11.26
2023-05-04T01:46:07.431Z,11.25
2023-05-04T01:47:07.461Z,11.23
2023-05-04T01:48:07.681Z,11.23
2023-05-04T01:49:07.587Z,11.25
2023-05-04T01:50:07.637Z,11.23
2023-05-04T01:51:07.679Z,11.23
2023-05-04T01:52:07.740Z,11.23
2023-05-04T01:53:07.765Z,11.25
2023-05-04T01:54:07.808Z,11.21
2023-05-04T01:55:07.862Z,11.22
2023-05-04T01:56:07.975Z,11.19
2023-05-04T01:57:07.971Z,11.19
2023-05-04T01:58:08.007Z,11.19
2023-05-04T01:59:08.042Z,11.16
2023-05-04T02:01:14.697Z,11.16
2023-05-04T02:02:15.713Z,11.15
2023-05-04T02:03:15.742Z,11.15
2023-05-04T02:04:15.651Z,11.15
2023-05-04T02:05:15.667Z,11.13
2023-05-04T02:06:15.683Z,11.11
2023-05-04T02:07:15.665Z,11.12
2023-05-04T02:08:15.664Z,11.09
2023-05-04T02:09:15.646Z,11.11
2023-05-04T02:10:15.626Z,11.08
2023-05-04T02:11:15.613Z,11.09
2023-05-04T02:12:15.654Z,11.05
2023-05-04T02:13:15.730Z,11.06
2023-05-04T02:14:15.636Z,11.06
2023-05-04T02:15:15.638Z,11.01
2023-05-04T02:16:15.756Z,10.99
2023-05-04T02:17:15.654Z,10.99
2023-05-04T02:18:15.651Z,10.95
2023-05-04T02:19:15.654Z,10.98
2023-05-04T02:20:15.660Z,10.96
2023-05-04T02:21:15.817Z,10.92
2023-05-04T02:22:15.705Z,10.94
2023-05-04T02:23:15.676Z,10.94
2023-05-04T02:24:15.676Z,10.95
2023-05-04T02:25:15.689Z,10.90
2023-05-04T02:26:15.688Z,10.91
2023-05-04T02:27:15.773Z,10.92
2023-05-04T02:28:15.695Z,10.92
2023-05-04T02:29:15.698Z,10.91
2023-05-04T02:30:15.730Z,10.92
2023-05-04T02:31:15.817Z,10.91
2023-05-04T02:32:15.844Z,10.87
2023-05-04T02:33:15.894Z,10.90
2023-05-04T02:34:15.950Z,10.85
2023-05-04T02:35:16.009Z,10.84
2023-05-04T02:36:16.062Z,10.85
2023-05-04T02:37:16.266Z,10.88
2023-05-04T02:38:16.193Z,10.84
2023-05-04T02:39:16.265Z,10.84
2023-05-04T02:40:16.304Z,10.85
2023-05-04T02:41:16.363Z,10.82
2023-05-04T02:42:16.446Z,10.79
2023-05-04T02:43:16.475Z,10.77
2023-05-04T02:44:16.582Z,10.79
2023-05-04T02:45:17.776Z,10.77
2023-05-04T02:46:16.787Z,10.74
2023-05-04T02:47:16.744Z,10.74
2023-05-04T02:48:16.806Z,10.77
2023-05-04T02:49:16.926Z,10.77
2023-05-04T02:50:16.931Z,10.74
2023-05-04T02:51:16.984Z,10.71
2023-05-04T02:52:17.068Z,10.68
2023-05-04T02:53:17.133Z,10.63
2023-05-04T02:54:17.146Z,10.60
2023-05-04T02:55:17.196Z,10.57
2023-05-04T02:56:17.262Z,10.61
2023-05-04T02:57:17.353Z,10.65
2023-05-04T02:58:17.387Z,10.65
2023-05-04T02:59:17.451Z,10.65
2023-05-04T03:00:17.520Z,10.67
2023-05-04T03:01:17.666Z,10.68
2023-05-04T03:02:17.691Z,10.65
2023-05-04T03:03:17.721Z,10.63
2023-05-04T03:04:17.842Z,10.67
2023-05-04T03:05:17.873Z,10.67
2023-05-04T03:06:17.931Z,10.67
2023-05-04T03:07:18.203Z,10.63
2023-05-04T03:08:18.917Z,10.64
2023-05-04T03:09:18.208Z,10.63
2023-05-04T03:10:18.226Z,10.65
2023-05-04T03:11:18.314Z,10.57
2023-05-04T03:12:18.387Z,10.61
2023-05-04T03:13:18.517Z,10.61
2023-05-04T03:14:18.552Z,10.56
2023-05-04T03:15:18.668Z,10.57
2023-05-04T03:16:18.762Z,10.49
2023-05-04T03:17:18.791Z,10.53
2023-05-04T03:18:18.891Z,10.53
2023-05-04T03:19:19.024Z,10.54
2023-05-04T03:20:19.023Z,10.53
2023-05-04T03:21:19.128Z,10.51
2023-05-04T03:22:19.196Z,10.53
2023-05-04T03:23:19.271Z,10.51
2023-05-04T03:24:19.365Z,10.51
2023-05-04T03:25:19.438Z,10.50
2023-05-04T03:26:19.466Z,10.50
2023-05-04T03:27:19.506Z,10.49
2023-05-04T03:28:19.580Z,10.51
2023-05-04T03:29:19.670Z,10.47
2023-05-04T03:30:19.658Z,10.50
2023-05-04T03:31:19.783Z,10.43
2023-05-04T03:32:19.731Z,10.44
2023-05-04T03:33:19.775Z,10.46
2023-05-04T03:34:19.840Z,10.44
2023-05-04T03:35:24.697Z,10.44
2023-05-04T03:36:19.924Z,10.42
2023-05-04T03:37:19.934Z,10.40
2023-05-04T03:38:19.958Z,10.42
2023-05-04T03:39:19.976Z,10.40
2023-05-04T03:40:20.002Z,10.43
2023-05-04T03:41:20.139Z,10.42
2023-05-04T03:42:20.039Z,10.39
2023-05-04T03:43:20.106Z,10.39
2023-05-04T03:44:20.096Z,10.39
2023-05-04T03:45:20.092Z,10.37
2023-05-04T03:46:20.173Z,10.39
2023-05-04T03:47:20.132Z,10.35
2023-05-04T03:48:20.158Z,10.36
2023-05-04T03:49:20.166Z,10.39
2023-05-04T03:50:20.184Z,10.37
2023-05-04T03:51:20.205Z,10.36
2023-05-04T03:52:20.211Z,10.39
2023-05-04T03:53:20.233Z,10.33
2023-05-04T03:54:20.243Z,10.32
2023-05-04T03:55:20.270Z,10.28
2023-05-04T03:56:20.275Z,10.09
2023-05-04T03:57:20.359Z,9.99
2023-05-04T03:58:20.302Z,10.13
2023-05-04T03:59:20.335Z,10.05
2023-05-04T04:00:20.319Z,10.05
2023-05-04T04:01:20.342Z,10.10
2023-05-04T04:02:20.400Z,10.16
2023-05-04T04:03:20.461Z,10.17
2023-05-04T04:04:20.384Z,10.23
2023-05-04T04:05:20.389Z,10.25
2023-05-04T04:06:20.415Z,10.26
2023-05-04T04:07:20.427Z,10.31
2023-05-04T04:08:20.471Z,10.29
2023-05-04T04:09:20.475Z,10.33
2023-05-04T04:10:20.517Z,10.33
2023-05-04T04:11:20.518Z,10.35
2023-05-04T04:12:20.556Z,10.33
2023-05-04T04:13:20.687Z,10.36
2023-05-04T04:14:20.584Z,10.28
2023-05-04T04:15:20.604Z,10.35
2023-05-04T04:16:20.692Z,10.37
2023-05-04T04:17:20.630Z,10.40
2023-05-04T04:18:20.637Z,10.42
2023-05-04T04:19:20.642Z,10.43
2023-05-04T04:20:20.661Z,10.43
2023-05-04T04:21:20.708Z,10.43
2023-05-04T04:22:20.723Z,10.43
2023-05-04T04:23:20.718Z,10.44
2023-05-04T04:24:20.737Z,10.47
2023-05-04T04:25:20.753Z,10.47
2023-05-04T04:26:20.772Z,10.49
2023-05-04T04:27:20.787Z,10.49
2023-05-04T04:28:20.815Z,10.49
2023-05-04T04:29:20.841Z,10.50
2023-05-04T04:30:20.831Z,10.53
2023-05-04T04:31:20.892Z,10.53
2023-05-04T04:32:20.852Z,10.54
2023-05-04T04:33:20.873Z,10.57
2023-05-04T04:34:20.897Z,10.61
2023-05-04T04:35:20.895Z,10.64
2023-05-04T04:36:20.894Z,10.67
2023-05-04T04:37:20.896Z,10.70
2023-05-04T04:38:20.905Z,10.71
2023-05-04T04:39:20.941Z,10.77
2023-05-04T04:40:20.930Z,10.85
2023-05-04T04:41:20.985Z,10.90
2023-05-04T04:42:21.068Z,10.94
2023-05-04T04:43:21.124Z,11.01
2023-05-04T04:44:21.176Z,11.02
2023-05-04T04:45:21.241Z,11.04
2023-05-04T04:46:21.373Z,11.04
2023-05-04T04:47:21.339Z,11.11
2023-05-04T04:48:21.379Z,11.09
2023-05-04T04:49:21.414Z,10.99
2023-05-04T04:50:21.498Z,11.08
2023-05-04T04:51:21.552Z,11.12
2023-05-04T04:52:21.619Z,11.13
2023-05-04T04:53:21.679Z,11.19
2023-05-04T04:54:21.748Z,11.21
2023-05-04T04:55:21.843Z,11.23
2023-05-04T04:56:21.856Z,11.27
2023-05-04T04:57:21.940Z,11.34
2023-05-04T04:58:22.139Z,11.39
2023-05-04T04:59:22.025Z,11.44
2023-05-04T05:00:22.083Z,11.50
2023-05-04T05:01:22.269Z,11.51
2023-05-04T05:02:22.203Z,11.57
2023-05-04T05:03:22.264Z,11.60
2023-05-04T05:04:22.384Z,11.64
2023-05-04T05:05:22.364Z,11.67
2023-05-04T05:06:22.402Z,11.67
2023-05-04T05:07:22.445Z,11.74
2023-05-04T05:08:22.480Z,11.78
2023-05-04T05:09:22.509Z,11.81
2023-05-04T05:10:22.520Z,11.88
2023-05-04T05:11:22.562Z,11.94
2023-05-04T05:12:22.567Z,11.94
2023-05-04T05:13:22.563Z,12.01
2023-05-04T05:14:22.572Z,12.05
2023-05-04T05:15:22.575Z,12.11
2023-05-04T05:16:22.593Z,12.12
2023-05-04T05:17:22.718Z,12.16
2023-05-04T05:18:22.575Z,12.18
2023-05-04T05:19:22.583Z,12.23
2023-05-04T05:20:22.583Z,12.25
2023-05-04T05:21:22.585Z,12.26
2023-05-04T05:22:23.466Z,12.32
2023-05-04T05:23:22.686Z,12.37
2023-05-04T05:24:22.751Z,12.33
2023-05-04T05:25:23.043Z,12.39
2023-05-04T05:26:22.867Z,12.37
2023-05-04T05:27:22.914Z,12.36
2023-05-04T05:28:23.058Z,12.43
2023-05-04T05:29:22.948Z,12.51
2023-05-04T05:30:22.948Z,12.53
2023-05-04T05:31:23.069Z,12.53
2023-05-04T05:32:23.009Z,12.60
2023-05-04T05:33:23.034Z,12.67
2023-05-04T05:34:23.024Z,12.74
2023-05-04T05:35:23.052Z,12.77
2023-05-04T05:36:23.067Z,12.81
2023-05-04T05:37:23.549Z,12.81
2023-05-04T05:38:23.191Z,12.84
2023-05-04T05:39:23.233Z,12.83
2023-05-04T05:40:23.246Z,12.85
2023-05-04T05:41:23.245Z,12.84
2023-05-04T05:42:23.251Z,12.73
2023-05-04T05:43:23.564Z,12.73
2023-05-04T05:44:23.272Z,12.78
2023-05-04T05:45:23.331Z,12.75
2023-05-04T05:46:39.079Z,12.63
2023-05-04T05:47:23.381Z,12.68
2023-05-04T05:48:23.573Z,12.68
2023-05-04T05:49:23.389Z,12.68
2023-05-04T05:50:26.505Z,12.74
2023-05-04T05:51:38.912Z,12.68
2023-05-04T05:52:23.529Z,12.68
2023-05-04T05:53:23.553Z,12.67
2023-05-04T05:54:55.611Z,12.64
2023-05-04T05:55:23.668Z,12.66
2023-05-04T05:56:23.540Z,12.68
2023-05-04T05:57:26.467Z,12.74
2023-05-04T05:58:23.242Z,12.87
2023-05-04T05:59:23.218Z,12.91
2023-05-04T06:00:23.217Z,12.92
2023-05-04T06:01:26.753Z,12.98
2023-05-04T06:02:26.838Z,13.02
2023-05-04T06:03:30.717Z,13.09
2023-05-04T06:06:39.829Z,13.25
2023-05-04T06:07:26.293Z,13.15
2023-05-04T06:08:30.455Z,13.27
2023-05-04T06:09:23.562Z,13.29
2023-05-04T06:10:23.011Z,13.29
2023-05-04T06:11:22.981Z,13.26
2023-05-04T06:12:26.254Z,13.36
2023-05-04T06:13:22.916Z,13.23
2023-05-04T06:14:23.272Z,13.40
2023-05-04T06:15:23.161Z,13.13
2023-05-04T06:16:22.894Z,13.36
2023-05-04T06:17:23.081Z,13.27
2023-05-04T06:18:22.778Z,13.40
2023-05-04T06:19:22.709Z,13.02
2023-05-04T06:20:23.681Z,12.78
2023-05-04T06:21:22.666Z,12.64
2023-05-04T06:22:23.901Z,12.67
2023-05-04T06:23:23.028Z,12.83
2023-05-04T06:24:25.773Z,13.09
2023-05-04T06:25:22.509Z,13.11
2023-05-04T06:26:22.453Z,12.94
2023-05-04T06:27:24.174Z,13.01
2023-05-04T06:28:22.375Z,12.83
2023-05-04T06:29:22.328Z,12.87
2023-05-04T06:30:22.378Z,13.16
2023-05-04T06:31:22.304Z,13.35
2023-05-04T06:32:22.753Z,13.50
2023-05-04T06:33:22.204Z,13.63
2023-05-04T06:34:22.126Z,13.18
2023-05-04T06:35:22.100Z,13.30
2023-05-04T06:36:22.054Z,13.29
2023-05-04T06:37:22.051Z,13.54
2023-05-04T06:38:22.054Z,13.60
2023-05-04T06:39:21.908Z,13.74
2023-05-04T06:40:21.883Z,13.80
2023-05-04T06:41:22.028Z,13.40
2023-05-04T06:42:21.778Z,13.47
2023-05-04T06:43:21.715Z,13.54
2023-05-04T06:44:21.675Z,13.57
2023-05-04T06:45:29.074Z,13.84
2023-05-04T06:46:22.055Z,13.25
2023-05-04T06:47:21.518Z,13.29
2023-05-04T06:49:21.416Z,13.38
2023-05-04T06:50:21.636Z,13.13
2023-05-04T06:51:21.551Z,13.33
2023-05-04T06:52:21.225Z,13.19
2023-05-04T06:53:21.431Z,13.26
2023-05-04T06:54:21.232Z,13.60
2023-05-04T06:55:21.050Z,13.84
2023-05-04T06:56:23.890Z,14.00
2023-05-04T06:57:20.926Z,14.20
2023-05-04T06:58:20.875Z,14.28
2023-05-04T06:59:20.818Z,14.43
2023-05-04T07:00:20.764Z,14.59
2023-05-04T07:01:21.890Z,14.71
2023-05-04T07:02:20.827Z,14.64
2023-05-04T07:03:20.655Z,14.64
2023-05-04T07:04:20.551Z,14.73
2023-05-04T07:05:20.509Z,14.87
2023-05-04T07:06:20.444Z,15.01
2023-05-04T07:07:20.539Z,15.06
2023-05-04T07:08:20.365Z,15.19
2023-05-04T07:09:20.603Z,15.33
2023-05-04T07:10:27.752Z,15.37
2023-05-04T07:11:20.190Z,15.45
2023-05-04T07:12:20.140Z,15.29
2023-05-04T07:13:21.538Z,15.50
2023-05-04T07:14:20.067Z,15.49
2023-05-04T07:15:20.006Z,15.37
2023-05-04T07:16:20.103Z,15.39
2023-05-04T07:17:19.902Z,15.53
2023-05-04T07:18:20.036Z,15.63
2023-05-04T07:19:19.812Z,15.74
2023-05-04T07:20:19.737Z,15.42
2023-05-04T07:21:27.622Z,15.56
2023-05-04T07:22:19.568Z,15.50
2023-05-04T07:23:19.552Z,15.71
2023-05-04T07:24:19.402Z,15.85
2023-05-04T07:25:19.318Z,15.98
2023-05-04T07:26:19.575Z,16.07
2023-05-04T07:27:19.218Z,16.16
2023-05-04T07:28:19.104Z,16.26
2023-05-04T07:29:19.032Z,16.26
2023-05-04T07:30:19.034Z,16.35
2023-05-04T07:31:18.938Z,16.37
2023-05-04T07:32:18.967Z,16.39
2023-05-04T07:33:18.867Z,16.39
2023-05-04T07:34:19.280Z,16.52
2023-05-04T07:35:19.723Z,16.54
2023-05-04T07:36:18.829Z,16.60
2023-05-04T07:37:19.106Z,16.59
2023-05-04T07:38:19.970Z,16.64
2023-05-04T07:39:18.807Z,16.39
2023-05-04T07:40:18.688Z,16.47
2023-05-04T07:41:18.640Z,16.60
2023-05-04T07:42:19.191Z,16.56
2023-05-04T07:43:18.710Z,16.64
2023-05-04T07:44:18.671Z,16.60
2023-05-04T07:45:18.415Z,16.73
2023-05-04T07:46:18.531Z,16.75
2023-05-04T07:47:18.589Z,16.85
2023-05-04T07:48:18.356Z,16.43
2023-05-04T07:49:50.433Z,16.59
2023-05-04T07:50:25.735Z,16.73
2023-05-04T07:51:18.143Z,16.40
2023-05-04T07:52:18.048Z,16.66
2023-05-04T07:53:18.118Z,16.46
2023-05-04T07:54:17.882Z,16.52
2023-05-04T07:55:17.830Z,16.56
2023-05-04T07:56:17.760Z,16.74
2023-05-04T07:57:17.661Z,16.81
2023-05-04T07:58:18.112Z,16.91
2023-05-04T07:59:17.512Z,17.02
2023-05-04T08:00:17.420Z,17.08
2023-05-04T08:01:17.321Z,16.49
2023-05-04T08:02:17.654Z,16.36
2023-05-04T08:03:17.636Z,16.19
2023-05-04T08:04:17.111Z,15.81
2023-05-04T08:05:16.948Z,15.35
2023-05-04T08:06:16.880Z,15.22
2023-05-04T08:07:16.971Z,15.64
2023-05-04T08:08:17.389Z,15.90
2023-05-04T08:09:16.627Z,15.67
2023-05-04T08:10:16.533Z,15.75
2023-05-04T08:11:20.482Z,16.09
2023-05-04T08:12:16.568Z,16.29
2023-05-04T08:13:16.917Z,16.11
2023-05-04T08:14:16.523Z,16.46
2023-05-04T08:15:16.415Z,16.67
2023-05-04T08:16:16.433Z,16.68
2023-05-04T08:17:16.598Z,16.88
2023-05-04T08:18:16.387Z,17.04
2023-05-04T08:19:16.351Z,17.14
2023-05-04T08:20:16.360Z,17.25
2023-05-04T08:21:16.350Z,17.33
2023-05-04T08:22:16.627Z,17.46
2023-05-04T08:23:16.541Z,17.39
2023-05-04T08:24:16.242Z,17.53
2023-05-04T08:25:17.239Z,17.45
2023-05-04T08:26:16.219Z,17.56
2023-05-04T08:27:17.615Z,17.62
2023-05-04T08:28:16.626Z,17.71
2023-05-04T08:29:16.233Z,17.54
2023-05-04T08:30:16.124Z,17.76
2023-05-04T08:31:16.165Z,17.77
2023-05-04T08:32:16.129Z,17.88
2023-05-04T08:33:16.104Z,17.87
2023-05-04T08:34:17.564Z,17.91
2023-05-04T08:35:23.255Z,17.91
2023-05-04T08:36:15.754Z,18.04
2023-05-04T08:37:47.457Z,18.08
2023-05-04T08:38:18.781Z,18.22
2023-05-04T08:39:15.572Z,18.20
2023-05-04T08:40:16.403Z,18.28
2023-05-04T08:41:15.240Z,18.39
2023-05-04T08:42:15.152Z,18.52
2023-05-04T08:43:15.058Z,18.62
2023-05-04T08:44:15.113Z,18.66
2023-05-04T08:45:15.049Z,18.84
2023-05-04T08:46:14.844Z,18.83
2023-05-04T08:47:14.646Z,18.98
2023-05-04T08:48:14.536Z,19.07
2023-05-04T08:49:14.601Z,19.08
2023-05-04T08:50:14.310Z,19.21
2023-05-04T08:51:15.223Z,19.30
2023-05-04T08:52:21.521Z,19.32
2023-05-04T08:53:14.139Z,19.43
2023-05-04T08:54:14.926Z,19.50
2023-05-04T08:55:13.854Z,19.54
2023-05-04T08:56:13.709Z,19.61
2023-05-04T08:57:13.597Z,19.71
2023-05-04T08:58:14.148Z,19.71
2023-05-04T08:59:13.583Z,19.73
2023-05-04T09:00:13.256Z,19.69
2023-05-04T09:01:13.262Z,19.85
2023-05-04T09:02:13.074Z,19.97
2023-05-04T09:03:12.958Z,19.81
2023-05-04T09:04:12.792Z,20.05
2023-05-04T09:05:13.122Z,20.19
2023-05-04T09:06:12.663Z,20.24
2023-05-04T09:07:12.455Z,20.32
2023-05-04T09:08:12.436Z,20.35
2023-05-04T09:09:12.335Z,20.36
2023-05-04T09:10:12.318Z,20.44
2023-05-04T09:11:12.577Z,20.50
2023-05-04T09:12:12.085Z,20.54
2023-05-04T09:13:12.148Z,20.64
2023-05-04T09:14:12.099Z,20.60
2023-05-04T09:15:12.427Z,20.63
2023-05-04T09:16:13.386Z,20.80
2023-05-04T09:17:11.749Z,20.81
2023-05-04T09:18:12.284Z,20.83
2023-05-04T09:19:11.526Z,20.73
2023-05-04T09:20:11.418Z,20.91
2023-05-04T09:21:12.210Z,21.02
2023-05-04T09:22:11.233Z,21.05
2023-05-04T09:23:11.134Z,21.21
2023-05-04T09:24:10.293Z,21.18
2023-05-04T09:25:10.918Z,21.29
2023-05-04T09:26:10.769Z,21.38
2023-05-04T09:27:10.684Z,21.41
2023-05-04T09:28:10.498Z,21.46
2023-05-04T09:29:13.871Z,21.60
2023-05-04T09:30:11.259Z,21.74
2023-05-04T09:31:10.196Z,21.88
2023-05-04T09:32:09.981Z,21.94
2023-05-04T09:33:09.907Z,21.97
2023-05-04T09:34:10.183Z,22.08
2023-05-04T09:35:12.179Z,22.16
2023-05-04T09:36:09.608Z,22.18
2023-05-04T09:37:09.527Z,22.25
2023-05-04T09:38:09.412Z,22.31
2023-05-04T09:39:11.296Z,22.43
2023-05-04T09:40:09.266Z,22.35
2023-05-04T09:41:09.079Z,22.19
2023-05-04T09:42:08.983Z,22.23
2023-05-04T09:43:08.888Z,22.23
2023-05-04T09:44:09.120Z,22.34
2023-05-04T09:45:08.768Z,22.38
2023-05-04T09:46:08.529Z,22.50
2023-05-04T09:47:08.520Z,22.41
2023-05-04T09:48:08.233Z,22.29
2023-05-04T09:49:08.604Z,22.14
2023-05-04T09:50:08.159Z,22.01
2023-05-04T09:51:07.897Z,21.97
2023-05-04T09:52:07.773Z,22.05
2023-05-04T09:53:07.677Z,22.16
2023-05-04T09:54:07.595Z,22.21
2023-05-04T09:55:07.424Z,22.14
2023-05-04T09:56:08.390Z,22.05
2023-05-04T09:57:07.205Z,22.11
2023-05-04T09:58:07.123Z,21.98
2023-05-04T09:59:06.939Z,22.00
2023-05-04T10:00:06.845Z,22.09
2023-05-04T10:01:06.747Z,22.01
2023-05-04T10:02:18.846Z,22.09
2023-05-04T10:03:06.870Z,22.05
2023-05-04T10:04:06.657Z,22.03
2023-05-04T10:05:06.655Z,22.08
2023-05-04T10:06:06.256Z,22.03
2023-05-04T10:07:06.103Z,21.95
2023-05-04T10:08:05.956Z,21.67
2023-05-04T10:09:06.092Z,21.60
2023-05-04T10:10:05.747Z,21.42
2023-05-04T10:11:05.621Z,21.19
2023-05-04T10:12:06.439Z,21.07
2023-05-04T10:13:06.494Z,20.78
2023-05-04T10:14:07.654Z,20.63
2023-05-04T10:15:05.839Z,20.70
2023-05-04T10:16:05.556Z,20.76
2023-05-04T10:17:05.403Z,20.69
2023-05-04T10:18:05.315Z,20.73
2023-05-04T10:19:08.842Z,20.88
2023-05-04T10:20:05.049Z,20.88
2023-05-04T10:21:04.934Z,21.02
2023-05-04T10:22:04.830Z,21.08
2023-05-04T10:23:05.096Z,21.09
2023-05-04T10:24:05.107Z,21.12
2023-05-04T10:25:04.799Z,21.11
2023-05-04T10:26:05.165Z,21.22
2023-05-04T10:27:04.217Z,21.26
2023-05-04T10:28:04.596Z,21.31
2023-05-04T10:29:04.600Z,21.38
2023-05-04T10:30:03.863Z,21.29
2023-05-04T10:31:03.758Z,21.19
2023-05-04T10:32:03.763Z,21.22
2023-05-04T10:33:03.570Z,21.25
2023-05-04T10:34:03.449Z,21.31
2023-05-04T10:35:03.584Z,21.24
2023-05-04T10:36:03.211Z,21.28
2023-05-04T10:37:03.636Z,21.21
2023-05-04T10:38:03.167Z,21.25
2023-05-04T10:39:03.113Z,21.33
2023-05-04T10:40:02.882Z,21.42
2023-05-04T10:41:02.773Z,21.49
2023-05-04T10:42:02.717Z,21.33
2023-05-04T10:43:03.283Z,21.36
2023-05-04T10:44:03.137Z,21.31
2023-05-04T10:45:02.690Z,21.22
2023-05-04T10:46:02.566Z,21.11
2023-05-04T10:47:02.427Z,21.15
2023-05-04T10:48:02.459Z,21.11
2023-05-04T10:49:02.645Z,21.11
2023-05-04T10:50:02.607Z,21.21
2023-05-04T10:51:02.171Z,21.16
2023-05-04T10:52:02.015Z,21.19
2023-05-04T10:53:01.945Z,21.21
2023-05-04T10:54:01.976Z,21.21
2023-05-04T10:55:02.322Z,21.28
2023-05-04T10:56:01.698Z,21.12
2023-05-04T10:57:01.662Z,20.99
2023-05-04T10:58:01.632Z,21.09
2023-05-04T10:59:01.563Z,21.11
2023-05-04T11:00:01.642Z,21.02
2023-05-04T11:01:01.534Z,21.14
2023-05-04T11:02:01.603Z,21.11
2023-05-04T11:03:01.710Z,21.08
2023-05-04T11:04:01.253Z,21.15
2023-05-04T11:05:01.199Z,21.14
2023-05-04T11:06:01.076Z,21.22
2023-05-04T11:07:01.053Z,21.41
2023-05-04T11:08:01.113Z,21.46
2023-05-04T11:09:01.162Z,21.43
2023-05-04T11:10:00.857Z,21.32
2023-05-04T11:11:00.783Z,21.28
2023-05-04T11:12:00.728Z,21.33
2023-05-04T11:13:00.840Z,21.48
2023-05-04T11:14:00.621Z,21.56
2023-05-04T11:15:00.498Z,21.66
2023-05-04T11:16:00.609Z,21.49
2023-05-04T11:17:00.349Z,21.45
2023-05-04T11:18:00.309Z,21.43
2023-05-04T11:19:00.624Z,21.42
2023-05-04T11:20:00.191Z,21.35
2023-05-04T11:21:00.147Z,21.36
2023-05-04T11:22:00.114Z,21.32
2023-05-04T11:23:00.053Z,21.39
2023-05-04T11:24:00.160Z,21.38
2023-05-04T11:24:59.997Z,21.22
2023-05-04T11:26:00.161Z,21.19
2023-05-04T11:27:00.145Z,21.24
2023-05-04T11:27:59.932Z,21.24
2023-05-04T11:28:59.882Z,21.32
2023-05-04T11:29:59.843Z,21.26
2023-05-04T11:30:59.823Z,21.35
2023-05-04T11:31:59.788Z,21.41
2023-05-04T11:32:59.770Z,21.52
2023-05-04T11:33:59.665Z,21.73
2023-05-04T11:34:59.609Z,21.81
2023-05-04T11:35:59.536Z,21.74
2023-05-04T11:36:59.447Z,21.70
2023-05-04T11:37:59.389Z,21.77
2023-05-04T11:38:59.624Z,21.84
2023-05-04T11:39:59.229Z,21.93
2023-05-04T11:40:59.189Z,22.03
2023-05-04T11:41:59.148Z,22.11
2023-05-04T11:42:59.075Z,22.00
2023-05-04T11:43:58.966Z,21.98
2023-05-04T11:45:00.402Z,21.94
2023-05-04T11:45:59.006Z,21.97
2023-05-04T11:46:58.888Z,21.95
2023-05-04T11:47:58.903Z,22.12
2023-05-04T11:48:59.878Z,22.08
2023-05-04T11:49:58.690Z,22.09
2023-05-04T11:50:58.640Z,21.91
2023-05-04T11:51:58.909Z,21.87
2023-05-04T11:52:58.575Z,21.90
2023-05-04T11:53:58.501Z,22.01
2023-05-04T11:54:58.452Z,22.08
2023-05-04T11:55:58.385Z,22.03
2023-05-04T11:56:58.278Z,22.16
2023-05-04T11:57:58.281Z,22.19
2023-05-04T11:58:58.216Z,22.18
2023-05-04T11:59:58.135Z,22.16
2023-05-04T12:00:58.101Z,22.31
2023-05-04T12:01:57.995Z,22.18
2023-05-04T12:02:58.120Z,22.01
2023-05-04T12:03:57.998Z,21.98
2023-05-04T12:04:57.910Z,21.97
2023-05-04T12:05:58.031Z,22.12
2023-05-04T12:06:59.023Z,22.22
2023-05-04T12:07:57.711Z,22.28
2023-05-04T12:08:57.670Z,22.48
2023-05-04T12:09:57.654Z,22.52
2023-05-04T12:10:57.657Z,22.48
2023-05-04T12:11:57.221Z,22.58
2023-05-04T12:12:57.132Z,22.63
2023-05-04T12:13:57.034Z,22.66
2023-05-04T12:14:57.128Z,22.77
2023-05-04T12:15:56.739Z,22.89
2023-05-04T12:16:56.576Z,22.91
2023-05-04T12:17:56.501Z,23.00
2023-05-04T12:18:56.295Z,23.05
2023-05-04T12:19:56.196Z,23.07
2023-05-04T12:20:56.043Z,23.11
2023-05-04T12:21:55.921Z,23.05
2023-05-04T12:22:55.774Z,23.08
2023-05-04T12:23:56.134Z,23.11
2023-05-04T12:24:55.553Z,23.21
2023-05-04T12:25:58.353Z,23.19
2023-05-04T12:26:55.271Z,23.23
2023-05-04T12:27:55.125Z,23.26
2023-05-04T12:28:55.013Z,23.11
2023-05-04T12:29:56.149Z,23.29
2023-05-04T12:30:54.850Z,23.35
2023-05-04T12:31:54.836Z,23.32
2023-05-04T12:32:54.741Z,23.35
2023-05-04T12:33:54.603Z,23.33
2023-05-04T12:34:54.516Z,23.44
2023-05-04T12:35:54.436Z,23.37
2023-05-04T12:36:54.356Z,23.37
2023-05-04T12:37:54.320Z,23.38
2023-05-04T12:38:54.255Z,23.42
2023-05-04T12:39:54.701Z,23.37
2023-05-04T12:40:54.076Z,23.48
2023-05-04T12:41:53.976Z,23.41
2023-05-04T12:42:53.883Z,23.38
2023-05-04T12:43:53.893Z,23.48
2023-05-04T12:44:54.156Z,23.28
2023-05-04T12:45:53.771Z,23.28
2023-05-04T12:46:53.553Z,23.42
2023-05-04T12:47:53.574Z,23.29
2023-05-04T12:48:53.384Z,23.41
2023-05-04T12:49:53.341Z,23.29
2023-05-04T12:50:53.226Z,23.48
2023-05-04T12:51:53.120Z,23.45
2023-05-04T12:52:53.153Z,23.49
2023-05-04T12:53:52.936Z,23.46
2023-05-04T12:54:52.877Z,23.57
2023-05-04T12:55:52.749Z,23.59